sensor_id;sensor_type;location;lat;lon;timestamp;P1;durP1;ratioP1;P2;durP2;ratioP2
32505;SDS011;18955;51.224;8.482;2022-07-05T00:00:55;3.30;;;1.35;;
32505;SDS011;18955;51.224;8.482;2022-07-05T00:03:22;1.30;;;1.00;;
32505;SDS011;18955;51.224;8.482;2022-07-05T00:05:48;1.05;;;1.00;;
32505;SDS011;18955;51.224;8.482;2022-07-05T00:08:15;3.20;;;1.35;;
32505;SDS011;18955;51.224;8.482;2022-07-05T00:10:41;3.08;;;1.48;;
32505;SDS011;18955;51.224;8.482;2022-07-05T00:13:08;4.28;;;1.52;;
32505;SDS011;18955;51.224;8.482;2022-07-05T00:15:34;2.53;;;1.50;;
32505;SDS011;18955;51.224;8.482;2022-07-05T00:18:01;2.58;;;1.20;;
32505;SDS011;18955;51.224;8.482;2022-07-05T00:20:27;3.70;;;1.48;;
32505;SDS011;18955;51.224;8.482;2022-07-05T00:22:54;2.35;;;1.17;;
32505;SDS011;18955;51.224;8.482;2022-07-05T00:25:20;4.28;;;1.40;;
32505;SDS011;18955;51.224;8.482;2022-07-05T00:27:46;4.00;;;1.58;;
32505;SDS011;18955;51.224;8.482;2022-07-05T00:30:12;3.05;;;1.48;;
32505;SDS011;18955;51.224;8.482;2022-07-05T00:32:39;5.53;;;1.70;;
32505;SDS011;18955;51.224;8.482;2022-07-05T00:35:06;3.50;;;1.70;;
32505;SDS011;18955;51.224;8.482;2022-07-05T00:37:34;6.93;;;1.55;;
32505;SDS011;18955;51.224;8.482;2022-07-05T00:40:00;2.10;;;1.52;;
32505;SDS011;18955;51.224;8.482;2022-07-05T00:42:27;1.75;;;1.40;;
32505;SDS011;18955;51.224;8.482;2022-07-05T00:44:53;3.05;;;1.30;;
32505;SDS011;18955;51.224;8.482;2022-07-05T00:47:19;4.47;;;1.45;;
32505;SDS011;18955;51.224;8.482;2022-07-05T00:49:46;3.40;;;1.45;;
32505;SDS011;18955;51.224;8.482;2022-07-05T00:52:12;2.20;;;1.25;;
32505;SDS011;18955;51.224;8.482;2022-07-05T00:54:39;3.55;;;1.30;;
32505;SDS011;18955;51.224;8.482;2022-07-05T00:59:32;2.17;;;1.60;;
32505;SDS011;18955;51.224;8.482;2022-07-05T01:01:58;3.03;;;1.48;;
32505;SDS011;18955;51.224;8.482;2022-07-05T01:04:25;3.42;;;1.65;;
32505;SDS011;18955;51.224;8.482;2022-07-05T01:06:52;4.13;;;1.40;;
32505;SDS011;18955;51.224;8.482;2022-07-05T01:09:19;3.90;;;1.60;;
32505;SDS011;18955;51.224;8.482;2022-07-05T01:11:47;3.53;;;1.67;;
32505;SDS011;18955;51.224;8.482;2022-07-05T01:14:21;2.63;;;1.50;;
32505;SDS011;18955;51.224;8.482;2022-07-05T01:16:49;1.98;;;1.50;;
32505;SDS011;18955;51.224;8.482;2022-07-05T01:19:16;2.60;;;1.67;;
32505;SDS011;18955;51.224;8.482;2022-07-05T01:21:46;1.92;;;1.60;;
32505;SDS011;18955;51.224;8.482;2022-07-05T01:24:14;5.28;;;2.13;;
32505;SDS011;18955;51.224;8.482;2022-07-05T01:26:43;4.55;;;1.50;;
32505;SDS011;18955;51.224;8.482;2022-07-05T01:29:11;3.97;;;1.70;;
32505;SDS011;18955;51.224;8.482;2022-07-05T01:31:40;2.20;;;1.80;;
32505;SDS011;18955;51.224;8.482;2022-07-05T01:34:07;3.60;;;1.70;;
32505;SDS011;18955;51.224;8.482;2022-07-05T01:39:01;3.25;;;2.25;;
32505;SDS011;18955;51.224;8.482;2022-07-05T01:41:32;3.45;;;2.08;;
32505;SDS011;18955;51.224;8.482;2022-07-05T01:46:25;4.50;;;1.50;;
32505;SDS011;18955;51.224;8.482;2022-07-05T01:48:56;5.07;;;1.80;;
32505;SDS011;18955;51.224;8.482;2022-07-05T01:51:24;3.30;;;1.75;;
32505;SDS011;18955;51.224;8.482;2022-07-05T01:53:55;2.95;;;1.70;;
32505;SDS011;18955;51.224;8.482;2022-07-05T01:56:21;5.32;;;1.70;;
32505;SDS011;18955;51.224;8.482;2022-07-05T01:58:48;1.90;;;1.67;;
32505;SDS011;18955;51.224;8.482;2022-07-05T02:01:18;5.13;;;1.83;;
32505;SDS011;18955;51.224;8.482;2022-07-05T02:04:01;3.03;;;1.90;;
32505;SDS011;18955;51.224;8.482;2022-07-05T02:06:30;1.92;;;1.35;;
32505;SDS011;18955;51.224;8.482;2022-07-05T02:08:59;2.53;;;1.77;;
32505;SDS011;18955;51.224;8.482;2022-07-05T02:11:26;2.72;;;1.50;;
32505;SDS011;18955;51.224;8.482;2022-07-05T02:13:52;2.83;;;1.50;;
32505;SDS011;18955;51.224;8.482;2022-07-05T02:16:23;2.72;;;1.92;;
32505;SDS011;18955;51.224;8.482;2022-07-05T02:18:50;3.33;;;1.88;;
32505;SDS011;18955;51.224;8.482;2022-07-05T02:21:17;2.75;;;2.00;;
32505;SDS011;18955;51.224;8.482;2022-07-05T02:23:45;2.85;;;1.80;;
32505;SDS011;18955;51.224;8.482;2022-07-05T02:26:12;3.63;;;1.85;;
32505;SDS011;18955;51.224;8.482;2022-07-05T02:28:40;5.03;;;1.98;;
32505;SDS011;18955;51.224;8.482;2022-07-05T02:31:08;4.05;;;1.77;;
32505;SDS011;18955;51.224;8.482;2022-07-05T02:33:34;3.28;;;2.00;;
32505;SDS011;18955;51.224;8.482;2022-07-05T02:36:10;2.10;;;1.90;;
32505;SDS011;18955;51.224;8.482;2022-07-05T02:41:06;2.00;;;1.80;;
32505;SDS011;18955;51.224;8.482;2022-07-05T02:43:38;3.83;;;1.58;;
32505;SDS011;18955;51.224;8.482;2022-07-05T02:46:07;2.20;;;1.70;;
32505;SDS011;18955;51.224;8.482;2022-07-05T02:48:35;2.42;;;1.58;;
32505;SDS011;18955;51.224;8.482;2022-07-05T02:51:03;1.73;;;1.63;;
32505;SDS011;18955;51.224;8.482;2022-07-05T02:53:30;6.63;;;1.52;;
32505;SDS011;18955;51.224;8.482;2022-07-05T02:55:57;2.85;;;2.00;;
32505;SDS011;18955;51.224;8.482;2022-07-05T02:58:24;3.05;;;1.98;;
32505;SDS011;18955;51.224;8.482;2022-07-05T03:00:53;3.65;;;1.80;;
32505;SDS011;18955;51.224;8.482;2022-07-05T03:03:23;2.90;;;2.17;;
32505;SDS011;18955;51.224;8.482;2022-07-05T03:05:51;3.05;;;1.80;;
32505;SDS011;18955;51.224;8.482;2022-07-05T03:08:18;3.30;;;1.83;;
32505;SDS011;18955;51.224;8.482;2022-07-05T03:10:45;3.25;;;2.17;;
32505;SDS011;18955;51.224;8.482;2022-07-05T03:13:11;16.15;;;2.00;;
32505;SDS011;18955;51.224;8.482;2022-07-05T03:15:40;5.10;;;1.75;;
32505;SDS011;18955;51.224;8.482;2022-07-05T03:18:06;4.35;;;2.22;;
32505;SDS011;18955;51.224;8.482;2022-07-05T03:20:33;4.22;;;2.45;;
32505;SDS011;18955;51.224;8.482;2022-07-05T03:23:01;6.20;;;1.83;;
32505;SDS011;18955;51.224;8.482;2022-07-05T03:25:38;7.65;;;2.10;;
32505;SDS011;18955;51.224;8.482;2022-07-05T03:28:06;3.08;;;2.13;;
32505;SDS011;18955;51.224;8.482;2022-07-05T03:30:33;3.70;;;2.00;;
32505;SDS011;18955;51.224;8.482;2022-07-05T03:32:59;3.80;;;2.00;;
32505;SDS011;18955;51.224;8.482;2022-07-05T03:35:28;4.93;;;1.95;;
32505;SDS011;18955;51.224;8.482;2022-07-05T03:37:55;5.80;;;1.95;;
32505;SDS011;18955;51.224;8.482;2022-07-05T03:40:22;3.67;;;2.03;;
32505;SDS011;18955;51.224;8.482;2022-07-05T03:42:49;8.50;;;2.10;;
32505;SDS011;18955;51.224;8.482;2022-07-05T03:45:16;3.88;;;1.98;;
32505;SDS011;18955;51.224;8.482;2022-07-05T03:47:43;2.92;;;1.88;;
32505;SDS011;18955;51.224;8.482;2022-07-05T03:50:12;2.38;;;1.95;;
32505;SDS011;18955;51.224;8.482;2022-07-05T03:52:39;2.50;;;1.95;;
32505;SDS011;18955;51.224;8.482;2022-07-05T03:55:06;4.90;;;2.10;;
32505;SDS011;18955;51.224;8.482;2022-07-05T03:57:33;4.25;;;2.20;;
32505;SDS011;18955;51.224;8.482;2022-07-05T04:02:26;7.30;;;1.90;;
32505;SDS011;18955;51.224;8.482;2022-07-05T04:04:53;2.90;;;2.00;;
32505;SDS011;18955;51.224;8.482;2022-07-05T04:07:20;5.93;;;2.20;;
32505;SDS011;18955;51.224;8.482;2022-07-05T04:09:46;8.20;;;1.63;;
32505;SDS011;18955;51.224;8.482;2022-07-05T04:17:07;6.65;;;2.08;;
32505;SDS011;18955;51.224;8.482;2022-07-05T04:19:35;3.67;;;2.13;;
32505;SDS011;18955;51.224;8.482;2022-07-05T04:22:02;3.40;;;2.10;;
32505;SDS011;18955;51.224;8.482;2022-07-05T04:24:29;12.20;;;2.03;;
32505;SDS011;18955;51.224;8.482;2022-07-05T04:26:55;22.60;;;2.78;;
32505;SDS011;18955;51.224;8.482;2022-07-05T04:29:21;33.30;;;3.15;;
32505;SDS011;18955;51.224;8.482;2022-07-05T04:31:48;14.75;;;2.17;;
32505;SDS011;18955;51.224;8.482;2022-07-05T04:34:14;5.65;;;1.90;;
32505;SDS011;18955;51.224;8.482;2022-07-05T04:39:08;9.05;;;2.50;;
32505;SDS011;18955;51.224;8.482;2022-07-05T04:41:38;23.88;;;2.70;;
32505;SDS011;18955;51.224;8.482;2022-07-05T04:44:07;5.63;;;2.65;;
32505;SDS011;18955;51.224;8.482;2022-07-05T04:46:34;14.95;;;2.40;;
32505;SDS011;18955;51.224;8.482;2022-07-05T04:49:00;15.25;;;2.40;;
32505;SDS011;18955;51.224;8.482;2022-07-05T04:51:26;25.70;;;3.33;;
32505;SDS011;18955;51.224;8.482;2022-07-05T04:53:53;34.50;;;4.65;;
32505;SDS011;18955;51.224;8.482;2022-07-05T04:56:21;29.38;;;3.53;;
32505;SDS011;18955;51.224;8.482;2022-07-05T04:58:47;42.47;;;3.70;;
32505;SDS011;18955;51.224;8.482;2022-07-05T05:01:14;36.92;;;3.72;;
32505;SDS011;18955;51.224;8.482;2022-07-05T05:03:40;26.88;;;2.70;;
32505;SDS011;18955;51.224;8.482;2022-07-05T05:06:06;40.35;;;4.13;;
32505;SDS011;18955;51.224;8.482;2022-07-05T05:08:32;46.35;;;4.05;;
32505;SDS011;18955;51.224;8.482;2022-07-05T05:10:59;119.13;;;6.30;;
32505;SDS011;18955;51.224;8.482;2022-07-05T05:13:25;95.85;;;6.18;;
32505;SDS011;18955;51.224;8.482;2022-07-05T05:15:51;97.10;;;6.13;;
32505;SDS011;18955;51.224;8.482;2022-07-05T05:18:17;113.25;;;7.30;;
32505;SDS011;18955;51.224;8.482;2022-07-05T05:20:46;129.30;;;7.10;;
32505;SDS011;18955;51.224;8.482;2022-07-05T05:23:12;99.57;;;5.95;;
32505;SDS011;18955;51.224;8.482;2022-07-05T05:25:39;63.25;;;4.78;;
32505;SDS011;18955;51.224;8.482;2022-07-05T05:28:05;49.80;;;3.95;;
32505;SDS011;18955;51.224;8.482;2022-07-05T05:30:31;68.82;;;4.82;;
32505;SDS011;18955;51.224;8.482;2022-07-05T05:32:57;31.40;;;3.63;;
32505;SDS011;18955;51.224;8.482;2022-07-05T05:35:24;31.00;;;3.72;;
32505;SDS011;18955;51.224;8.482;2022-07-05T05:37:51;82.75;;;5.90;;
32505;SDS011;18955;51.224;8.482;2022-07-05T05:40:19;81.55;;;6.57;;
32505;SDS011;18955;51.224;8.482;2022-07-05T05:42:46;59.22;;;5.13;;
32505;SDS011;18955;51.224;8.482;2022-07-05T05:45:13;69.13;;;4.93;;
32505;SDS011;18955;51.224;8.482;2022-07-05T05:47:45;38.20;;;4.15;;
32505;SDS011;18955;51.224;8.482;2022-07-05T05:50:50;52.80;;;5.75;;
32505;SDS011;18955;51.224;8.482;2022-07-05T05:53:08;62.22;;;5.03;;
32505;SDS011;18955;51.224;8.482;2022-07-05T05:55:35;16.85;;;4.53;;
32505;SDS011;18955;51.224;8.482;2022-07-05T05:58:14;37.30;;;4.63;;
32505;SDS011;18955;51.224;8.482;2022-07-05T06:00:44;20.85;;;3.92;;
32505;SDS011;18955;51.224;8.482;2022-07-05T06:03:14;9.18;;;3.30;;
32505;SDS011;18955;51.224;8.482;2022-07-05T06:05:41;9.45;;;3.42;;
32505;SDS011;18955;51.224;8.482;2022-07-05T06:08:07;8.75;;;3.38;;
32505;SDS011;18955;51.224;8.482;2022-07-05T06:10:34;10.93;;;4.15;;
32505;SDS011;18955;51.224;8.482;2022-07-05T06:13:02;12.80;;;3.85;;
32505;SDS011;18955;51.224;8.482;2022-07-05T06:15:30;5.78;;;3.42;;
32505;SDS011;18955;51.224;8.482;2022-07-05T06:17:57;5.15;;;3.58;;
32505;SDS011;18955;51.224;8.482;2022-07-05T06:20:24;10.27;;;3.63;;
32505;SDS011;18955;51.224;8.482;2022-07-05T06:22:55;4.82;;;3.08;;
32505;SDS011;18955;51.224;8.482;2022-07-05T06:25:22;6.50;;;3.67;;
32505;SDS011;18955;51.224;8.482;2022-07-05T06:27:51;7.45;;;3.70;;
32505;SDS011;18955;51.224;8.482;2022-07-05T06:30:18;8.25;;;3.53;;
32505;SDS011;18955;51.224;8.482;2022-07-05T06:32:45;4.63;;;3.05;;
32505;SDS011;18955;51.224;8.482;2022-07-05T06:35:13;7.65;;;3.20;;
32505;SDS011;18955;51.224;8.482;2022-07-05T06:40:20;15.25;;;4.15;;
32505;SDS011;18955;51.224;8.482;2022-07-05T06:42:48;5.28;;;3.22;;
32505;SDS011;18955;51.224;8.482;2022-07-05T06:45:16;11.57;;;3.20;;
32505;SDS011;18955;51.224;8.482;2022-07-05T06:47:42;10.57;;;3.17;;
32505;SDS011;18955;51.224;8.482;2022-07-05T06:50:08;4.90;;;3.13;;
32505;SDS011;18955;51.224;8.482;2022-07-05T06:52:36;8.43;;;3.20;;
32505;SDS011;18955;51.224;8.482;2022-07-05T06:55:03;5.82;;;3.40;;
32505;SDS011;18955;51.224;8.482;2022-07-05T06:57:29;6.25;;;3.20;;
32505;SDS011;18955;51.224;8.482;2022-07-05T06:59:55;6.13;;;3.42;;
32505;SDS011;18955;51.224;8.482;2022-07-05T07:02:22;4.65;;;3.30;;
32505;SDS011;18955;51.224;8.482;2022-07-05T07:04:48;2.20;;;2.03;;
32505;SDS011;18955;51.224;8.482;2022-07-05T07:07:15;5.30;;;3.15;;
32505;SDS011;18955;51.224;8.482;2022-07-05T07:10:00;4.85;;;2.63;;
32505;SDS011;18955;51.224;8.482;2022-07-05T07:12:27;11.40;;;3.17;;
32505;SDS011;18955;51.224;8.482;2022-07-05T07:14:57;7.82;;;2.80;;
32505;SDS011;18955;51.224;8.482;2022-07-05T07:19:50;9.30;;;3.40;;
32505;SDS011;18955;51.224;8.482;2022-07-05T07:22:16;6.05;;;3.40;;
32505;SDS011;18955;51.224;8.482;2022-07-05T07:24:43;3.33;;;2.13;;
32505;SDS011;18955;51.224;8.482;2022-07-05T07:27:09;9.55;;;3.22;;
32505;SDS011;18955;51.224;8.482;2022-07-05T07:29:36;7.05;;;3.38;;
32505;SDS011;18955;51.224;8.482;2022-07-05T07:32:04;7.75;;;3.35;;
32505;SDS011;18955;51.224;8.482;2022-07-05T07:34:31;6.45;;;3.88;;
32505;SDS011;18955;51.224;8.482;2022-07-05T07:36:58;4.65;;;3.40;;
32505;SDS011;18955;51.224;8.482;2022-07-05T07:39:25;8.43;;;3.60;;
32505;SDS011;18955;51.224;8.482;2022-07-05T07:41:52;22.40;;;3.92;;
32505;SDS011;18955;51.224;8.482;2022-07-05T07:44:18;6.78;;;3.65;;
32505;SDS011;18955;51.224;8.482;2022-07-05T07:46:45;6.97;;;3.22;;
32505;SDS011;18955;51.224;8.482;2022-07-05T07:49:12;5.30;;;3.30;;
32505;SDS011;18955;51.224;8.482;2022-07-05T07:54:05;6.38;;;3.40;;
32505;SDS011;18955;51.224;8.482;2022-07-05T07:56:31;6.45;;;3.08;;
32505;SDS011;18955;51.224;8.482;2022-07-05T07:58:58;5.85;;;3.30;;
32505;SDS011;18955;51.224;8.482;2022-07-05T08:01:24;6.30;;;3.05;;
32505;SDS011;18955;51.224;8.482;2022-07-05T08:03:50;6.68;;;3.10;;
32505;SDS011;18955;51.224;8.482;2022-07-05T08:06:17;8.48;;;3.58;;
32505;SDS011;18955;51.224;8.482;2022-07-05T08:08:43;8.30;;;2.83;;
32505;SDS011;18955;51.224;8.482;2022-07-05T08:11:10;6.15;;;3.03;;
32505;SDS011;18955;51.224;8.482;2022-07-05T08:13:38;4.63;;;2.90;;
32505;SDS011;18955;51.224;8.482;2022-07-05T08:16:08;6.10;;;2.67;;
32505;SDS011;18955;51.224;8.482;2022-07-05T08:18:35;6.43;;;3.20;;
32505;SDS011;18955;51.224;8.482;2022-07-05T08:21:28;9.98;;;3.17;;
32505;SDS011;18955;51.224;8.482;2022-07-05T08:24:02;4.78;;;2.97;;
32505;SDS011;18955;51.224;8.482;2022-07-05T08:26:32;7.55;;;3.30;;
32505;SDS011;18955;51.224;8.482;2022-07-05T08:31:27;7.10;;;3.15;;
32505;SDS011;18955;51.224;8.482;2022-07-05T08:33:54;7.65;;;3.58;;
32505;SDS011;18955;51.224;8.482;2022-07-05T08:36:21;5.15;;;3.05;;
32505;SDS011;18955;51.224;8.482;2022-07-05T08:38:49;8.93;;;3.13;;
32505;SDS011;18955;51.224;8.482;2022-07-05T08:41:17;4.13;;;3.20;;
32505;SDS011;18955;51.224;8.482;2022-07-05T08:43:44;9.68;;;2.60;;
32505;SDS011;18955;51.224;8.482;2022-07-05T08:46:13;3.70;;;3.17;;
32505;SDS011;18955;51.224;8.482;2022-07-05T08:48:41;9.40;;;4.10;;
32505;SDS011;18955;51.224;8.482;2022-07-05T08:51:16;8.85;;;3.15;;
32505;SDS011;18955;51.224;8.482;2022-07-05T08:53:44;7.88;;;3.58;;
32505;SDS011;18955;51.224;8.482;2022-07-05T08:56:12;7.65;;;3.45;;
32505;SDS011;18955;51.224;8.482;2022-07-05T08:58:39;9.30;;;4.60;;
32505;SDS011;18955;51.224;8.482;2022-07-05T09:03:33;9.85;;;3.55;;
32505;SDS011;18955;51.224;8.482;2022-07-05T09:06:09;7.32;;;3.10;;
32505;SDS011;18955;51.224;8.482;2022-07-05T09:08:37;11.52;;;3.83;;
32505;SDS011;18955;51.224;8.482;2022-07-05T09:11:08;4.72;;;2.80;;
32505;SDS011;18955;51.224;8.482;2022-07-05T09:13:41;8.48;;;3.40;;
32505;SDS011;18955;51.224;8.482;2022-07-05T09:16:17;22.05;;;3.72;;
32505;SDS011;18955;51.224;8.482;2022-07-05T09:18:53;6.35;;;3.03;;
32505;SDS011;18955;51.224;8.482;2022-07-05T09:21:20;5.38;;;3.15;;
32505;SDS011;18955;51.224;8.482;2022-07-05T09:23:57;5.45;;;2.97;;
32505;SDS011;18955;51.224;8.482;2022-07-05T09:26:37;4.10;;;2.88;;
32505;SDS011;18955;51.224;8.482;2022-07-05T09:29:08;3.25;;;2.60;;
32505;SDS011;18955;51.224;8.482;2022-07-05T09:31:36;5.13;;;2.75;;
32505;SDS011;18955;51.224;8.482;2022-07-05T09:34:08;7.70;;;3.13;;
32505;SDS011;18955;51.224;8.482;2022-07-05T09:36:55;4.47;;;2.88;;
32505;SDS011;18955;51.224;8.482;2022-07-05T09:47:13;4.28;;;1.50;;
32505;SDS011;18955;51.224;8.482;2022-07-05T09:49:44;4.50;;;2.40;;
32505;SDS011;18955;51.224;8.482;2022-07-05T09:52:25;5.45;;;2.22;;
32505;SDS011;18955;51.224;8.482;2022-07-05T09:57:31;5.55;;;1.80;;
32505;SDS011;18955;51.224;8.482;2022-07-05T10:02:40;6.13;;;2.22;;
32505;SDS011;18955;51.224;8.482;2022-07-05T10:05:12;4.10;;;2.30;;
32505;SDS011;18955;51.224;8.482;2022-07-05T10:10:19;6.97;;;2.25;;
32505;SDS011;18955;51.224;8.482;2022-07-05T10:12:51;7.10;;;2.20;;
32505;SDS011;18955;51.224;8.482;2022-07-05T10:15:34;6.38;;;2.10;;
32505;SDS011;18955;51.224;8.482;2022-07-05T10:20:38;3.80;;;1.95;;
32505;SDS011;18955;51.224;8.482;2022-07-05T10:23:18;5.50;;;1.75;;
32505;SDS011;18955;51.224;8.482;2022-07-05T10:25:46;5.00;;;1.83;;
32505;SDS011;18955;51.224;8.482;2022-07-05T10:28:17;3.40;;;1.73;;
32505;SDS011;18955;51.224;8.482;2022-07-05T10:30:46;7.75;;;2.00;;
32505;SDS011;18955;51.224;8.482;2022-07-05T10:33:17;5.45;;;2.10;;
32505;SDS011;18955;51.224;8.482;2022-07-05T10:35:47;5.88;;;2.38;;
32505;SDS011;18955;51.224;8.482;2022-07-05T10:38:13;3.40;;;2.35;;
32505;SDS011;18955;51.224;8.482;2022-07-05T10:43:07;5.55;;;3.08;;
32505;SDS011;18955;51.224;8.482;2022-07-05T10:45:36;4.90;;;2.00;;
32505;SDS011;18955;51.224;8.482;2022-07-05T10:53:17;4.88;;;2.03;;
32505;SDS011;18955;51.224;8.482;2022-07-05T10:55:56;4.13;;;1.83;;
32505;SDS011;18955;51.224;8.482;2022-07-05T11:14:30;5.68;;;1.80;;
32505;SDS011;18955;51.224;8.482;2022-07-05T11:17:16;2.38;;;1.63;;
32505;SDS011;18955;51.224;8.482;2022-07-05T11:22:26;5.30;;;2.10;;
32505;SDS011;18955;51.224;8.482;2022-07-05T11:24:53;4.10;;;1.60;;
32505;SDS011;18955;51.224;8.482;2022-07-05T11:27:20;4.57;;;1.73;;
32505;SDS011;18955;51.224;8.482;2022-07-05T11:34:46;6.40;;;1.67;;
32505;SDS011;18955;51.224;8.482;2022-07-05T11:37:17;4.25;;;1.63;;
32505;SDS011;18955;51.224;8.482;2022-07-05T11:42:46;7.28;;;1.50;;
32505;SDS011;18955;51.224;8.482;2022-07-05T11:45:13;2.47;;;1.20;;
32505;SDS011;18955;51.224;8.482;2022-07-05T11:47:40;4.80;;;1.88;;
32505;SDS011;18955;51.224;8.482;2022-07-05T11:52:34;6.13;;;1.60;;
32505;SDS011;18955;51.224;8.482;2022-07-05T11:55:05;2.53;;;1.90;;
32505;SDS011;18955;51.224;8.482;2022-07-05T11:57:35;2.42;;;1.50;;
32505;SDS011;18955;51.224;8.482;2022-07-05T12:02:43;7.38;;;1.73;;
32505;SDS011;18955;51.224;8.482;2022-07-05T12:05:09;3.45;;;1.40;;
32505;SDS011;18955;51.224;8.482;2022-07-05T12:07:37;3.83;;;1.63;;
32505;SDS011;18955;51.224;8.482;2022-07-05T12:10:03;20.52;;;1.80;;
32505;SDS011;18955;51.224;8.482;2022-07-05T12:12:48;8.90;;;1.80;;
32505;SDS011;18955;51.224;8.482;2022-07-05T12:15:16;2.28;;;1.65;;
32505;SDS011;18955;51.224;8.482;2022-07-05T12:17:44;8.52;;;1.73;;
32505;SDS011;18955;51.224;8.482;2022-07-05T12:20:15;2.63;;;1.50;;
32505;SDS011;18955;51.224;8.482;2022-07-05T12:22:47;12.63;;;1.77;;
32505;SDS011;18955;51.224;8.482;2022-07-05T12:25:14;7.60;;;1.90;;
32505;SDS011;18955;51.224;8.482;2022-07-05T12:27:43;1.88;;;1.50;;
32505;SDS011;18955;51.224;8.482;2022-07-05T12:30:10;3.60;;;1.60;;
32505;SDS011;18955;51.224;8.482;2022-07-05T12:35:27;3.10;;;1.77;;
32505;SDS011;18955;51.224;8.482;2022-07-05T12:38:19;2.90;;;1.60;;
32505;SDS011;18955;51.224;8.482;2022-07-05T12:43:13;4.70;;;1.55;;
32505;SDS011;18955;51.224;8.482;2022-07-05T12:45:42;2.85;;;2.05;;
32505;SDS011;18955;51.224;8.482;2022-07-05T12:48:10;7.88;;;2.00;;
32505;SDS011;18955;51.224;8.482;2022-07-05T12:50:47;5.47;;;1.80;;
32505;SDS011;18955;51.224;8.482;2022-07-05T12:53:18;4.50;;;1.60;;
32505;SDS011;18955;51.224;8.482;2022-07-05T13:01:31;3.70;;;1.80;;
32505;SDS011;18955;51.224;8.482;2022-07-05T13:06:51;2.60;;;1.90;;
32505;SDS011;18955;51.224;8.482;2022-07-05T13:09:36;5.45;;;1.95;;
32505;SDS011;18955;51.224;8.482;2022-07-05T13:12:16;3.50;;;1.60;;
32505;SDS011;18955;51.224;8.482;2022-07-05T13:14:47;6.35;;;1.90;;
32505;SDS011;18955;51.224;8.482;2022-07-05T13:17:18;3.05;;;1.95;;
32505;SDS011;18955;51.224;8.482;2022-07-05T13:19:47;5.18;;;2.13;;
32505;SDS011;18955;51.224;8.482;2022-07-05T13:22:16;4.38;;;2.03;;
32505;SDS011;18955;51.224;8.482;2022-07-05T13:24:43;3.83;;;1.90;;
32505;SDS011;18955;51.224;8.482;2022-07-05T13:27:10;6.20;;;2.13;;
32505;SDS011;18955;51.224;8.482;2022-07-05T13:29:38;5.18;;;2.22;;
32505;SDS011;18955;51.224;8.482;2022-07-05T13:34:31;2.72;;;2.10;;
32505;SDS011;18955;51.224;8.482;2022-07-05T13:36:57;6.10;;;2.65;;
32505;SDS011;18955;51.224;8.482;2022-07-05T13:39:27;5.15;;;2.30;;
32505;SDS011;18955;51.224;8.482;2022-07-05T13:41:54;5.43;;;2.35;;
32505;SDS011;18955;51.224;8.482;2022-07-05T13:44:21;4.88;;;2.20;;
32505;SDS011;18955;51.224;8.482;2022-07-05T13:46:48;4.85;;;1.63;;
32505;SDS011;18955;51.224;8.482;2022-07-05T13:49:14;4.90;;;2.33;;
32505;SDS011;18955;51.224;8.482;2022-07-05T13:51:40;6.43;;;2.17;;
32505;SDS011;18955;51.224;8.482;2022-07-05T13:54:06;7.90;;;2.50;;
32505;SDS011;18955;51.224;8.482;2022-07-05T13:56:33;6.55;;;2.72;;
32505;SDS011;18955;51.224;8.482;2022-07-05T13:59:01;3.75;;;2.83;;
32505;SDS011;18955;51.224;8.482;2022-07-05T14:01:29;4.88;;;2.40;;
32505;SDS011;18955;51.224;8.482;2022-07-05T14:03:56;7.45;;;2.67;;
32505;SDS011;18955;51.224;8.482;2022-07-05T14:06:24;5.03;;;2.55;;
32505;SDS011;18955;51.224;8.482;2022-07-05T14:08:51;3.45;;;2.55;;
32505;SDS011;18955;51.224;8.482;2022-07-05T14:11:18;7.00;;;3.03;;
32505;SDS011;18955;51.224;8.482;2022-07-05T14:13:44;3.97;;;2.45;;
32505;SDS011;18955;51.224;8.482;2022-07-05T14:16:10;4.72;;;2.55;;
32505;SDS011;18955;51.224;8.482;2022-07-05T14:18:37;7.65;;;2.72;;
32505;SDS011;18955;51.224;8.482;2022-07-05T14:21:03;5.13;;;2.40;;
32505;SDS011;18955;51.224;8.482;2022-07-05T14:23:29;7.55;;;2.83;;
32505;SDS011;18955;51.224;8.482;2022-07-05T14:25:59;4.43;;;2.50;;
32505;SDS011;18955;51.224;8.482;2022-07-05T14:28:27;6.85;;;2.50;;
32505;SDS011;18955;51.224;8.482;2022-07-05T14:30:53;6.80;;;2.50;;
32505;SDS011;18955;51.224;8.482;2022-07-05T14:33:19;9.75;;;3.00;;
32505;SDS011;18955;51.224;8.482;2022-07-05T14:35:47;3.35;;;2.63;;
32505;SDS011;18955;51.224;8.482;2022-07-05T14:38:13;6.68;;;2.80;;
32505;SDS011;18955;51.224;8.482;2022-07-05T14:40:39;4.57;;;2.30;;
32505;SDS011;18955;51.224;8.482;2022-07-05T14:43:05;4.97;;;2.40;;
32505;SDS011;18955;51.224;8.482;2022-07-05T14:45:32;7.43;;;2.60;;
32505;SDS011;18955;51.224;8.482;2022-07-05T14:47:58;4.47;;;2.53;;
32505;SDS011;18955;51.224;8.482;2022-07-05T14:50:24;4.47;;;2.10;;
32505;SDS011;18955;51.224;8.482;2022-07-05T14:52:50;6.13;;;2.55;;
32505;SDS011;18955;51.224;8.482;2022-07-05T14:55:17;4.40;;;2.17;;
32505;SDS011;18955;51.224;8.482;2022-07-05T15:00:10;5.22;;;2.25;;
32505;SDS011;18955;51.224;8.482;2022-07-05T15:02:39;6.18;;;2.08;;
32505;SDS011;18955;51.224;8.482;2022-07-05T15:05:06;6.32;;;2.05;;
32505;SDS011;18955;51.224;8.482;2022-07-05T15:07:33;3.30;;;2.20;;
32505;SDS011;18955;51.224;8.482;2022-07-05T15:10:00;6.57;;;2.25;;
32505;SDS011;18955;51.224;8.482;2022-07-05T15:12:26;6.35;;;1.98;;
32505;SDS011;18955;51.224;8.482;2022-07-05T15:14:52;3.78;;;1.98;;
32505;SDS011;18955;51.224;8.482;2022-07-05T15:17:19;5.47;;;2.30;;
32505;SDS011;18955;51.224;8.482;2022-07-05T15:19:45;6.05;;;2.03;;
32505;SDS011;18955;51.224;8.482;2022-07-05T15:22:11;4.03;;;1.90;;
32505;SDS011;18955;51.224;8.482;2022-07-05T15:24:38;4.32;;;2.13;;
32505;SDS011;18955;51.224;8.482;2022-07-05T15:27:04;5.28;;;1.75;;
32505;SDS011;18955;51.224;8.482;2022-07-05T15:29:31;4.25;;;1.88;;
32505;SDS011;18955;51.224;8.482;2022-07-05T15:31:57;5.40;;;2.08;;
32505;SDS011;18955;51.224;8.482;2022-07-05T15:34:23;6.90;;;1.80;;
32505;SDS011;18955;51.224;8.482;2022-07-05T15:36:51;5.00;;;1.88;;
32505;SDS011;18955;51.224;8.482;2022-07-05T15:41:44;2.45;;;1.63;;
32505;SDS011;18955;51.224;8.482;2022-07-05T15:44:10;1.95;;;1.60;;
32505;SDS011;18955;51.224;8.482;2022-07-05T15:46:36;1.92;;;1.42;;
32505;SDS011;18955;51.224;8.482;2022-07-05T15:49:26;2.17;;;1.52;;
32505;SDS011;18955;51.224;8.482;2022-07-05T15:51:52;8.63;;;1.92;;
32505;SDS011;18955;51.224;8.482;2022-07-05T15:54:19;5.35;;;1.75;;
32505;SDS011;18955;51.224;8.482;2022-07-05T15:56:45;3.22;;;1.70;;
32505;SDS011;18955;51.224;8.482;2022-07-05T15:59:11;3.22;;;1.38;;
32505;SDS011;18955;51.224;8.482;2022-07-05T16:01:38;3.72;;;1.60;;
32505;SDS011;18955;51.224;8.482;2022-07-05T16:04:04;4.43;;;1.75;;
32505;SDS011;18955;51.224;8.482;2022-07-05T16:06:31;3.42;;;1.52;;
32505;SDS011;18955;51.224;8.482;2022-07-05T16:08:58;2.13;;;1.50;;
32505;SDS011;18955;51.224;8.482;2022-07-05T16:11:24;4.60;;;1.60;;
32505;SDS011;18955;51.224;8.482;2022-07-05T16:13:50;3.63;;;1.75;;
32505;SDS011;18955;51.224;8.482;2022-07-05T16:16:17;4.30;;;1.50;;
32505;SDS011;18955;51.224;8.482;2022-07-05T16:18:44;4.45;;;1.50;;
32505;SDS011;18955;51.224;8.482;2022-07-05T16:21:13;3.72;;;1.33;;
32505;SDS011;18955;51.224;8.482;2022-07-05T16:23:41;6.22;;;1.55;;
32505;SDS011;18955;51.224;8.482;2022-07-05T16:26:09;2.67;;;1.73;;
32505;SDS011;18955;51.224;8.482;2022-07-05T16:28:36;3.13;;;1.77;;
32505;SDS011;18955;51.224;8.482;2022-07-05T16:31:04;4.47;;;1.58;;
32505;SDS011;18955;51.224;8.482;2022-07-05T16:33:32;4.28;;;1.70;;
32505;SDS011;18955;51.224;8.482;2022-07-05T16:38:34;4.93;;;1.42;;
32505;SDS011;18955;51.224;8.482;2022-07-05T16:41:02;2.03;;;1.23;;
32505;SDS011;18955;51.224;8.482;2022-07-05T16:43:29;3.45;;;1.58;;
32505;SDS011;18955;51.224;8.482;2022-07-05T16:45:55;2.63;;;1.42;;